Sipiwesk, Canada
Current Conditions -  °F | °C
As of 4:00 PM on Monday 22 Dec 2014 (Local Time) from CYTH Reporting Station
Light Snow Light Snow  
Wind Chill:   Ceiling: 700
Heat Index: 16°   Visibility: 3mi
Dew Point: 14°   Wind: 8mph
Humidity: 93%   Direction: 40°NE
Pressure: 29.94"   Gusts: NA
Location:  55.45°N, 97.4°W
Report Text: CYTH 222200Z 04007KT 3SM -FZDZ -SN BR BKN007 OVC017 M09/M10 A2994 RMK SC7SC1 SLP158
Loading
Personal Weather Stations






























Interactive Weather Map New forecast layout! Learn more

10-Day Weather Forecast

Advertisements
Track Severe Weather on mobile